sensor_id;sensor_type;location;lat;lon;timestamp;pressure;altitude;pressure_sealevel;temperature
78917;BMP280;68315;48.608;11.436;2023-03-23T00:01:21;96739.16;;;9.35
78917;BMP280;68315;48.608;11.436;2023-03-23T00:03:51;96751.59;;;9.36
78917;BMP280;68315;48.608;11.436;2023-03-23T00:06:17;96739.28;;;9.29
78917;BMP280;68315;48.608;11.436;2023-03-23T00:08:47;96740.69;;;9.23
78917;BMP280;68315;48.608;11.436;2023-03-23T00:11:16;96736.56;;;9.16
78917;BMP280;68315;48.608;11.436;2023-03-23T00:13:43;96740.47;;;9.08
78917;BMP280;68315;48.608;11.436;2023-03-23T00:16:10;96747.38;;;9.01
78917;BMP280;68315;48.608;11.436;2023-03-23T00:18:47;96755.47;;;8.94
78917;BMP280;68315;48.608;11.436;2023-03-23T00:21:13;96746.09;;;8.89
78917;BMP280;68315;48.608;11.436;2023-03-23T00:23:39;96743.91;;;8.88
78917;BMP280;68315;48.608;11.436;2023-03-23T00:26:05;96736.19;;;8.86
78917;BMP280;68315;48.608;11.436;2023-03-23T00:28:30;96734.75;;;8.85
78917;BMP280;68315;48.608;11.436;2023-03-23T00:31:04;96723.06;;;8.85
78917;BMP280;68315;48.608;11.436;2023-03-23T00:33:35;96732.53;;;8.84
78917;BMP280;68315;48.608;11.436;2023-03-23T00:36:04;96737.69;;;8.87
78917;BMP280;68315;48.608;11.436;2023-03-23T00:38:29;96730.41;;;8.90
78917;BMP280;68315;48.608;11.436;2023-03-23T00:40:55;96738.41;;;8.88
78917;BMP280;68315;48.608;11.436;2023-03-23T00:43:22;96726.09;;;8.81
78917;BMP280;68315;48.608;11.436;2023-03-23T00:45:50;96735.16;;;8.76
78917;BMP280;68315;48.608;11.436;2023-03-23T00:48:17;96736.53;;;8.70
78917;BMP280;68315;48.608;11.436;2023-03-23T00:50:43;96729.91;;;8.65
78917;BMP280;68315;48.608;11.436;2023-03-23T00:53:08;96732.84;;;8.67
78917;BMP280;68315;48.608;11.436;2023-03-23T00:55:33;96736.81;;;8.66
78917;BMP280;68315;48.608;11.436;2023-03-23T00:57:59;96729.13;;;8.78
78917;BMP280;68315;48.608;11.436;2023-03-23T01:00:24;96741.56;;;8.92
78917;BMP280;68315;48.608;11.436;2023-03-23T01:02:50;96742.19;;;8.98
78917;BMP280;68315;48.608;11.436;2023-03-23T01:05:18;96733.56;;;8.94
78917;BMP280;68315;48.608;11.436;2023-03-23T01:07:43;96734.31;;;8.81
78917;BMP280;68315;48.608;11.436;2023-03-23T01:10:10;96728.00;;;8.73
78917;BMP280;68315;48.608;11.436;2023-03-23T01:12:37;96738.22;;;8.60
78917;BMP280;68315;48.608;11.436;2023-03-23T01:15:03;96729.59;;;8.55
78917;BMP280;68315;48.608;11.436;2023-03-23T01:17:28;96730.50;;;8.58
78917;BMP280;68315;48.608;11.436;2023-03-23T01:19:53;96734.19;;;8.61
78917;BMP280;68315;48.608;11.436;2023-03-23T01:22:19;96728.44;;;8.64
78917;BMP280;68315;48.608;11.436;2023-03-23T01:24:44;96733.38;;;8.66
78917;BMP280;68315;48.608;11.436;2023-03-23T01:27:10;96710.00;;;8.65
78917;BMP280;68315;48.608;11.436;2023-03-23T01:29:35;96709.34;;;8.58
78917;BMP280;68315;48.608;11.436;2023-03-23T01:32:01;96707.78;;;8.50
78917;BMP280;68315;48.608;11.436;2023-03-23T01:34:26;96704.50;;;8.38
78917;BMP280;68315;48.608;11.436;2023-03-23T01:36:51;96697.03;;;8.26
78917;BMP280;68315;48.608;11.436;2023-03-23T01:39:16;96693.94;;;8.16
78917;BMP280;68315;48.608;11.436;2023-03-23T01:41:42;96689.97;;;8.17
78917;BMP280;68315;48.608;11.436;2023-03-23T01:46:55;96685.13;;;8.23
78917;BMP280;68315;48.608;11.436;2023-03-23T01:49:27;96692.16;;;8.19
78917;BMP280;68315;48.608;11.436;2023-03-23T01:52:07;96685.56;;;8.14
78917;BMP280;68315;48.608;11.436;2023-03-23T01:54:36;96688.41;;;8.22
78917;BMP280;68315;48.608;11.436;2023-03-23T01:57:14;96689.13;;;8.22
78917;BMP280;68315;48.608;11.436;2023-03-23T01:59:42;96688.19;;;8.20
78917;BMP280;68315;48.608;11.436;2023-03-23T02:02:10;96683.44;;;8.20
78917;BMP280;68315;48.608;11.436;2023-03-23T02:04:36;96685.38;;;8.25
78917;BMP280;68315;48.608;11.436;2023-03-23T02:07:01;96690.19;;;8.32
78917;BMP280;68315;48.608;11.436;2023-03-23T02:09:29;96688.59;;;8.37
78917;BMP280;68315;48.608;11.436;2023-03-23T02:11:55;96688.28;;;8.40
78917;BMP280;68315;48.608;11.436;2023-03-23T02:14:23;96687.25;;;8.43
78917;BMP280;68315;48.608;11.436;2023-03-23T02:17:02;96686.91;;;8.47
78917;BMP280;68315;48.608;11.436;2023-03-23T02:31:39;96686.81;;;8.79
78917;BMP280;68315;48.608;11.436;2023-03-23T02:34:23;96688.06;;;8.78
78917;BMP280;68315;48.608;11.436;2023-03-23T02:36:58;96691.22;;;8.82
78917;BMP280;68315;48.608;11.436;2023-03-23T02:39:29;96682.28;;;8.81
78917;BMP280;68315;48.608;11.436;2023-03-23T02:42:04;96660.16;;;8.79
78917;BMP280;68315;48.608;11.436;2023-03-23T02:44:31;96656.63;;;8.92
78917;BMP280;68315;48.608;11.436;2023-03-23T02:47:00;96645.09;;;9.06
78917;BMP280;68315;48.608;11.436;2023-03-23T02:49:28;96648.53;;;8.99
78917;BMP280;68315;48.608;11.436;2023-03-23T02:51:56;96658.75;;;8.86
78917;BMP280;68315;48.608;11.436;2023-03-23T02:54:23;96652.25;;;8.76
78917;BMP280;68315;48.608;11.436;2023-03-23T02:56:51;96665.53;;;8.72
78917;BMP280;68315;48.608;11.436;2023-03-23T02:59:17;96670.56;;;8.81
78917;BMP280;68315;48.608;11.436;2023-03-23T03:04:18;96655.63;;;8.82
78917;BMP280;68315;48.608;11.436;2023-03-23T03:09:37;96640.94;;;8.92
78917;BMP280;68315;48.608;11.436;2023-03-23T03:12:13;96650.13;;;8.82
78917;BMP280;68315;48.608;11.436;2023-03-23T03:14:46;96681.72;;;8.83
78917;BMP280;68315;48.608;11.436;2023-03-23T03:17:22;96691.22;;;8.82
78917;BMP280;68315;48.608;11.436;2023-03-23T03:19:50;96700.50;;;8.79
78917;BMP280;68315;48.608;11.436;2023-03-23T03:22:18;96701.66;;;8.70
78917;BMP280;68315;48.608;11.436;2023-03-23T03:24:47;96685.75;;;8.69
78917;BMP280;68315;48.608;11.436;2023-03-23T03:27:16;96669.19;;;8.87
78917;BMP280;68315;48.608;11.436;2023-03-23T03:29:44;96672.34;;;8.78
78917;BMP280;68315;48.608;11.436;2023-03-23T03:32:13;96668.34;;;8.66
78917;BMP280;68315;48.608;11.436;2023-03-23T03:34:39;96658.28;;;8.61
78917;BMP280;68315;48.608;11.436;2023-03-23T03:37:05;96673.75;;;8.58
78917;BMP280;68315;48.608;11.436;2023-03-23T03:39:31;96702.06;;;8.74
78917;BMP280;68315;48.608;11.436;2023-03-23T03:41:58;96684.13;;;8.86
78917;BMP280;68315;48.608;11.436;2023-03-23T03:44:24;96699.09;;;8.98
78917;BMP280;68315;48.608;11.436;2023-03-23T03:46:49;96693.19;;;9.07
78917;BMP280;68315;48.608;11.436;2023-03-23T03:49:15;96683.22;;;9.17
78917;BMP280;68315;48.608;11.436;2023-03-23T03:51:41;96678.53;;;9.05
78917;BMP280;68315;48.608;11.436;2023-03-23T03:54:06;96692.13;;;8.97
78917;BMP280;68315;48.608;11.436;2023-03-23T03:56:32;96680.13;;;9.00
78917;BMP280;68315;48.608;11.436;2023-03-23T03:59:01;96669.59;;;9.04
78917;BMP280;68315;48.608;11.436;2023-03-23T04:01:27;96668.84;;;9.04
78917;BMP280;68315;48.608;11.436;2023-03-23T04:03:54;96678.66;;;8.99
78917;BMP280;68315;48.608;11.436;2023-03-23T04:06:20;96688.03;;;9.04
78917;BMP280;68315;48.608;11.436;2023-03-23T04:08:45;96693.59;;;9.11
78917;BMP280;68315;48.608;11.436;2023-03-23T04:11:12;96698.94;;;9.17
78917;BMP280;68315;48.608;11.436;2023-03-23T04:13:39;96698.09;;;9.22
78917;BMP280;68315;48.608;11.436;2023-03-23T04:16:05;96706.50;;;9.24
78917;BMP280;68315;48.608;11.436;2023-03-23T04:18:31;96707.44;;;9.26
78917;BMP280;68315;48.608;11.436;2023-03-23T04:20:58;96708.41;;;9.29
78917;BMP280;68315;48.608;11.436;2023-03-23T04:23:25;96701.44;;;9.28
78917;BMP280;68315;48.608;11.436;2023-03-23T04:25:52;96714.94;;;9.26
78917;BMP280;68315;48.608;11.436;2023-03-23T04:28:19;96704.50;;;9.24
78917;BMP280;68315;48.608;11.436;2023-03-23T04:30:49;96706.31;;;9.22
78917;BMP280;68315;48.608;11.436;2023-03-23T04:33:17;96707.38;;;9.19
78917;BMP280;68315;48.608;11.436;2023-03-23T04:35:43;96699.69;;;9.17
78917;BMP280;68315;48.608;11.436;2023-03-23T04:38:11;96703.47;;;9.14
78917;BMP280;68315;48.608;11.436;2023-03-23T04:40:38;96713.59;;;9.19
78917;BMP280;68315;48.608;11.436;2023-03-23T04:43:05;96696.28;;;9.24
78917;BMP280;68315;48.608;11.436;2023-03-23T04:45:32;96685.88;;;9.44
78917;BMP280;68315;48.608;11.436;2023-03-23T04:47:57;96680.91;;;9.42
78917;BMP280;68315;48.608;11.436;2023-03-23T04:50:26;96691.06;;;9.47
78917;BMP280;68315;48.608;11.436;2023-03-23T04:52:52;96698.78;;;9.56
78917;BMP280;68315;48.608;11.436;2023-03-23T04:55:19;96698.00;;;9.69
78917;BMP280;68315;48.608;11.436;2023-03-23T04:57:44;96684.38;;;9.76
78917;BMP280;68315;48.608;11.436;2023-03-23T05:00:10;96678.22;;;9.83
78917;BMP280;68315;48.608;11.436;2023-03-23T05:02:45;96681.88;;;9.86
78917;BMP280;68315;48.608;11.436;2023-03-23T05:05:13;96666.34;;;9.88
78917;BMP280;68315;48.608;11.436;2023-03-23T05:07:38;96661.63;;;9.96
78917;BMP280;68315;48.608;11.436;2023-03-23T05:10:05;96652.19;;;10.05
78917;BMP280;68315;48.608;11.436;2023-03-23T05:12:32;96666.19;;;10.22
78917;BMP280;68315;48.608;11.436;2023-03-23T05:14:58;96658.25;;;10.39
78917;BMP280;68315;48.608;11.436;2023-03-23T05:17:23;96651.91;;;10.52
78917;BMP280;68315;48.608;11.436;2023-03-23T05:19:50;96649.56;;;10.63
78917;BMP280;68315;48.608;11.436;2023-03-23T05:22:16;96639.88;;;10.70
78917;BMP280;68315;48.608;11.436;2023-03-23T05:24:41;96650.00;;;10.75
78917;BMP280;68315;48.608;11.436;2023-03-23T05:27:10;96642.66;;;10.77
78917;BMP280;68315;48.608;11.436;2023-03-23T05:29:36;96641.06;;;10.82
78917;BMP280;68315;48.608;11.436;2023-03-23T05:32:03;96641.59;;;10.88
78917;BMP280;68315;48.608;11.436;2023-03-23T05:34:29;96631.91;;;10.94
78917;BMP280;68315;48.608;11.436;2023-03-23T05:36:57;96633.78;;;11.07
78917;BMP280;68315;48.608;11.436;2023-03-23T05:39:22;96636.38;;;11.28
78917;BMP280;68315;48.608;11.436;2023-03-23T05:41:47;96622.81;;;11.52
78917;BMP280;68315;48.608;11.436;2023-03-23T05:44:13;96633.44;;;11.78
78917;BMP280;68315;48.608;11.436;2023-03-23T05:46:39;96627.72;;;11.99
78917;BMP280;68315;48.608;11.436;2023-03-23T05:49:04;96622.19;;;12.14
78917;BMP280;68315;48.608;11.436;2023-03-23T05:51:29;96627.50;;;12.20
78917;BMP280;68315;48.608;11.436;2023-03-23T05:53:54;96620.16;;;12.22
78917;BMP280;68315;48.608;11.436;2023-03-23T05:56:21;96626.00;;;12.34
78917;BMP280;68315;48.608;11.436;2023-03-23T05:58:48;96620.41;;;12.49
78917;BMP280;68315;48.608;11.436;2023-03-23T06:01:13;96626.72;;;12.74
78917;BMP280;68315;48.608;11.436;2023-03-23T06:03:40;96617.88;;;12.83
78917;BMP280;68315;48.608;11.436;2023-03-23T06:06:05;96629.63;;;12.84
78917;BMP280;68315;48.608;11.436;2023-03-23T06:08:31;96629.75;;;12.93
78917;BMP280;68315;48.608;11.436;2023-03-23T06:10:56;96624.47;;;12.88
78917;BMP280;68315;48.608;11.436;2023-03-23T06:13:22;96629.47;;;12.82
78917;BMP280;68315;48.608;11.436;2023-03-23T06:15:48;96625.38;;;12.90
78917;BMP280;68315;48.608;11.436;2023-03-23T06:18:14;96623.72;;;12.87
78917;BMP280;68315;48.608;11.436;2023-03-23T06:20:40;96619.13;;;12.90
78917;BMP280;68315;48.608;11.436;2023-03-23T06:23:06;96633.22;;;12.94
78917;BMP280;68315;48.608;11.436;2023-03-23T06:25:32;96632.72;;;12.88
78917;BMP280;68315;48.608;11.436;2023-03-23T06:27:57;96641.41;;;12.84
78917;BMP280;68315;48.608;11.436;2023-03-23T06:30:23;96638.66;;;12.84
78917;BMP280;68315;48.608;11.436;2023-03-23T06:32:49;96632.16;;;12.89
78917;BMP280;68315;48.608;11.436;2023-03-23T06:35:14;96626.25;;;12.93
78917;BMP280;68315;48.608;11.436;2023-03-23T06:37:40;96638.03;;;12.93
78917;BMP280;68315;48.608;11.436;2023-03-23T06:40:06;96629.00;;;12.93
78917;BMP280;68315;48.608;11.436;2023-03-23T06:42:32;96640.78;;;12.93
78917;BMP280;68315;48.608;11.436;2023-03-23T06:44:58;96633.97;;;12.94
78917;BMP280;68315;48.608;11.436;2023-03-23T06:47:26;96631.91;;;13.02
78917;BMP280;68315;48.608;11.436;2023-03-23T06:49:52;96646.31;;;12.93
78917;BMP280;68315;48.608;11.436;2023-03-23T06:52:17;96641.00;;;12.88
78917;BMP280;68315;48.608;11.436;2023-03-23T06:54:42;96646.00;;;12.82
78917;BMP280;68315;48.608;11.436;2023-03-23T06:57:08;96646.00;;;12.82
78917;BMP280;68315;48.608;11.436;2023-03-23T06:59:33;96645.03;;;12.87
78917;BMP280;68315;48.608;11.436;2023-03-23T07:01:58;96647.44;;;12.90
78917;BMP280;68315;48.608;11.436;2023-03-23T07:04:24;96646.84;;;12.92
78917;BMP280;68315;48.608;11.436;2023-03-23T07:06:49;96643.19;;;12.89
78917;BMP280;68315;48.608;11.436;2023-03-23T07:09:14;96654.97;;;12.90
78917;BMP280;68315;48.608;11.436;2023-03-23T07:11:40;96650.00;;;12.88
78917;BMP280;68315;48.608;11.436;2023-03-23T07:14:06;96637.50;;;12.87
78917;BMP280;68315;48.608;11.436;2023-03-23T07:16:31;96647.00;;;12.94
78917;BMP280;68315;48.608;11.436;2023-03-23T07:18:57;96641.72;;;12.88
78917;BMP280;68315;48.608;11.436;2023-03-23T07:21:22;96635.44;;;12.95
78917;BMP280;68315;48.608;11.436;2023-03-23T07:23:47;96632.41;;;13.08
78917;BMP280;68315;48.608;11.436;2023-03-23T07:26:12;96632.69;;;13.20
78917;BMP280;68315;48.608;11.436;2023-03-23T07:28:38;96633.94;;;13.26
78917;BMP280;68315;48.608;11.436;2023-03-23T07:31:05;96633.59;;;13.30
78917;BMP280;68315;48.608;11.436;2023-03-23T07:33:32;96647.28;;;13.37
78917;BMP280;68315;48.608;11.436;2023-03-23T07:35:58;96644.41;;;13.52
78917;BMP280;68315;48.608;11.436;2023-03-23T07:38:24;96638.91;;;13.70
78917;BMP280;68315;48.608;11.436;2023-03-23T07:40:52;96647.25;;;13.87
78917;BMP280;68315;48.608;11.436;2023-03-23T07:43:17;96648.47;;;13.93
78917;BMP280;68315;48.608;11.436;2023-03-23T07:45:44;96645.63;;;14.01
78917;BMP280;68315;48.608;11.436;2023-03-23T07:48:09;96651.63;;;14.07
78917;BMP280;68315;48.608;11.436;2023-03-23T07:50:34;96653.78;;;14.16
78917;BMP280;68315;48.608;11.436;2023-03-23T07:53:02;96653.38;;;14.19
78917;BMP280;68315;48.608;11.436;2023-03-23T07:55:27;96655.06;;;14.32
78917;BMP280;68315;48.608;11.436;2023-03-23T07:57:54;96653.81;;;14.42
78917;BMP280;68315;48.608;11.436;2023-03-23T08:00:21;96652.00;;;14.55
78917;BMP280;68315;48.608;11.436;2023-03-23T08:02:50;96662.56;;;14.66
78917;BMP280;68315;48.608;11.436;2023-03-23T08:05:17;96661.06;;;14.82
78917;BMP280;68315;48.608;11.436;2023-03-23T08:07:44;96659.84;;;14.92
78917;BMP280;68315;48.608;11.436;2023-03-23T08:10:11;96663.22;;;15.00
78917;BMP280;68315;48.608;11.436;2023-03-23T08:12:38;96663.09;;;15.08
78917;BMP280;68315;48.608;11.436;2023-03-23T08:15:06;96658.50;;;15.20
78917;BMP280;68315;48.608;11.436;2023-03-23T08:17:32;96671.34;;;15.25
78917;BMP280;68315;48.608;11.436;2023-03-23T08:19:58;96657.13;;;15.38
78917;BMP280;68315;48.608;11.436;2023-03-23T08:22:23;96664.72;;;15.47
78917;BMP280;68315;48.608;11.436;2023-03-23T08:24:48;96663.28;;;15.46
78917;BMP280;68315;48.608;11.436;2023-03-23T08:27:14;96668.81;;;15.56
78917;BMP280;68315;48.608;11.436;2023-03-23T08:29:39;96682.56;;;15.63
78917;BMP280;68315;48.608;11.436;2023-03-23T08:32:06;96674.09;;;15.61
78917;BMP280;68315;48.608;11.436;2023-03-23T08:34:31;96680.22;;;15.69
78917;BMP280;68315;48.608;11.436;2023-03-23T08:36:57;96675.44;;;15.70
78917;BMP280;68315;48.608;11.436;2023-03-23T08:39:22;96677.91;;;15.75
78917;BMP280;68315;48.608;11.436;2023-03-23T08:41:49;96685.38;;;15.82
78917;BMP280;68315;48.608;11.436;2023-03-23T08:44:14;96692.06;;;15.89
78917;BMP280;68315;48.608;11.436;2023-03-23T08:46:41;96690.66;;;15.97
78917;BMP280;68315;48.608;11.436;2023-03-23T08:49:06;96693.88;;;16.13
78917;BMP280;68315;48.608;11.436;2023-03-23T08:51:32;96694.63;;;16.32
78917;BMP280;68315;48.608;11.436;2023-03-23T08:53:57;96699.16;;;16.47
78917;BMP280;68315;48.608;11.436;2023-03-23T08:56:22;96705.25;;;16.55
78917;BMP280;68315;48.608;11.436;2023-03-23T08:58:47;96707.31;;;16.55
78917;BMP280;68315;48.608;11.436;2023-03-23T09:01:13;96703.06;;;16.54
78917;BMP280;68315;48.608;11.436;2023-03-23T09:03:39;96697.25;;;16.50
78917;BMP280;68315;48.608;11.436;2023-03-23T09:06:07;96699.72;;;16.45
78917;BMP280;68315;48.608;11.436;2023-03-23T09:08:33;96711.69;;;16.48
78917;BMP280;68315;48.608;11.436;2023-03-23T09:11:05;96717.69;;;16.45
78917;BMP280;68315;48.608;11.436;2023-03-23T09:13:32;96713.31;;;16.41
78917;BMP280;68315;48.608;11.436;2023-03-23T09:15:57;96718.72;;;16.49
78917;BMP280;68315;48.608;11.436;2023-03-23T09:18:23;96726.44;;;16.51
78917;BMP280;68315;48.608;11.436;2023-03-23T09:20:50;96717.06;;;16.65
78917;BMP280;68315;48.608;11.436;2023-03-23T09:23:15;96720.41;;;16.83
78917;BMP280;68315;48.608;11.436;2023-03-23T09:25:41;96716.00;;;16.99
78917;BMP280;68315;48.608;11.436;2023-03-23T09:28:06;96721.09;;;17.12
78917;BMP280;68315;48.608;11.436;2023-03-23T09:30:33;96717.84;;;17.25
78917;BMP280;68315;48.608;11.436;2023-03-23T09:33:03;96717.00;;;17.43
78917;BMP280;68315;48.608;11.436;2023-03-23T09:35:30;96703.47;;;17.59
78917;BMP280;68315;48.608;11.436;2023-03-23T09:37:57;96697.59;;;17.65
78917;BMP280;68315;48.608;11.436;2023-03-23T09:40:30;96694.06;;;17.74
78917;BMP280;68315;48.608;11.436;2023-03-23T09:46:13;96702.63;;;17.57
78917;BMP280;68315;48.608;11.436;2023-03-23T09:48:46;96712.59;;;17.50
78917;BMP280;68315;48.608;11.436;2023-03-23T09:51:22;96713.22;;;17.48
78917;BMP280;68315;48.608;11.436;2023-03-23T09:53:53;96724.47;;;17.41
78917;BMP280;68315;48.608;11.436;2023-03-23T09:56:19;96732.69;;;17.39
78917;BMP280;68315;48.608;11.436;2023-03-23T09:58:51;96733.53;;;17.41
78917;BMP280;68315;48.608;11.436;2023-03-23T10:01:41;96729.25;;;17.50
78917;BMP280;68315;48.608;11.436;2023-03-23T10:04:19;96725.72;;;17.59
78917;BMP280;68315;48.608;11.436;2023-03-23T10:06:47;96724.88;;;17.57
78917;BMP280;68315;48.608;11.436;2023-03-23T10:09:15;96726.59;;;17.62
78917;BMP280;68315;48.608;11.436;2023-03-23T10:11:53;96727.31;;;17.62
78917;BMP280;68315;48.608;11.436;2023-03-23T10:15:03;96728.59;;;17.71
78917;BMP280;68315;48.608;11.436;2023-03-23T10:22:40;96734.97;;;17.83
78917;BMP280;68315;48.608;11.436;2023-03-23T10:27:56;96734.03;;;17.90
78917;BMP280;68315;48.608;11.436;2023-03-23T10:30:56;96728.25;;;17.97
78917;BMP280;68315;48.608;11.436;2023-03-23T10:33:26;96734.63;;;18.09
78917;BMP280;68315;48.608;11.436;2023-03-23T10:36:50;96744.38;;;18.20
78917;BMP280;68315;48.608;11.436;2023-03-23T10:39:15;96737.16;;;18.26
78917;BMP280;68315;48.608;11.436;2023-03-23T10:41:42;96741.78;;;18.33
78917;BMP280;68315;48.608;11.436;2023-03-23T10:44:16;96739.09;;;18.24
78917;BMP280;68315;48.608;11.436;2023-03-23T10:46:51;96734.25;;;18.24
78917;BMP280;68315;48.608;11.436;2023-03-23T10:49:28;96729.13;;;18.21
78917;BMP280;68315;48.608;11.436;2023-03-23T10:54:55;96737.28;;;18.28
78917;BMP280;68315;48.608;11.436;2023-03-23T10:57:29;96742.16;;;18.39
78917;BMP280;68315;48.608;11.436;2023-03-23T11:00:08;96726.94;;;18.40
78917;BMP280;68315;48.608;11.436;2023-03-23T11:02:47;96726.66;;;18.36
78917;BMP280;68315;48.608;11.436;2023-03-23T11:05:18;96720.81;;;18.53
78917;BMP280;68315;48.608;11.436;2023-03-23T11:07:52;96719.41;;;18.64
78917;BMP280;68315;48.608;11.436;2023-03-23T11:10:27;96720.38;;;18.69
78917;BMP280;68315;48.608;11.436;2023-03-23T11:12:56;96726.03;;;18.92
78917;BMP280;68315;48.608;11.436;2023-03-23T11:15:32;96731.25;;;19.09
78917;BMP280;68315;48.608;11.436;2023-03-23T11:18:00;96734.75;;;19.21
78917;BMP280;68315;48.608;11.436;2023-03-23T11:20:28;96722.16;;;19.43
78917;BMP280;68315;48.608;11.436;2023-03-23T11:22:54;96725.81;;;19.57
78917;BMP280;68315;48.608;11.436;2023-03-23T11:25:20;96723.38;;;19.74
78917;BMP280;68315;48.608;11.436;2023-03-23T11:27:46;96718.78;;;19.79
78917;BMP280;68315;48.608;11.436;2023-03-23T11:30:22;96714.59;;;19.92
78917;BMP280;68315;48.608;11.436;2023-03-23T11:32:49;96734.03;;;19.90
78917;BMP280;68315;48.608;11.436;2023-03-23T11:35:23;96726.38;;;20.02
78917;BMP280;68315;48.608;11.436;2023-03-23T11:37:58;96728.47;;;19.66
78917;BMP280;68315;48.608;11.436;2023-03-23T11:40:26;96725.34;;;19.26
78917;BMP280;68315;48.608;11.436;2023-03-23T11:45:22;96747.63;;;19.37
78917;BMP280;68315;48.608;11.436;2023-03-23T11:47:58;96727.78;;;19.20
78917;BMP280;68315;48.608;11.436;2023-03-23T11:50:27;96731.88;;;19.07
78917;BMP280;68315;48.608;11.436;2023-03-23T11:53:35;96739.22;;;18.91
78917;BMP280;68315;48.608;11.436;2023-03-23T11:58:34;96737.56;;;18.65
78917;BMP280;68315;48.608;11.436;2023-03-23T12:06:30;96739.53;;;18.74
78917;BMP280;68315;48.608;11.436;2023-03-23T12:09:14;96748.84;;;18.79
78917;BMP280;68315;48.608;11.436;2023-03-23T12:12:15;96743.28;;;18.79
78917;BMP280;68315;48.608;11.436;2023-03-23T12:15:13;96743.69;;;18.96
78917;BMP280;68315;48.608;11.436;2023-03-23T12:20:15;96739.84;;;19.01
78917;BMP280;68315;48.608;11.436;2023-03-23T12:22:57;96740.59;;;19.13
78917;BMP280;68315;48.608;11.436;2023-03-23T12:30:33;96740.50;;;19.23
78917;BMP280;68315;48.608;11.436;2023-03-23T12:33:28;96733.31;;;19.08
78917;BMP280;68315;48.608;11.436;2023-03-23T12:36:22;96728.06;;;18.80
78917;BMP280;68315;48.608;11.436;2023-03-23T12:39:14;96728.06;;;18.80
78917;BMP280;68315;48.608;11.436;2023-03-23T12:44:56;96731.69;;;18.82
78917;BMP280;68315;48.608;11.436;2023-03-23T12:47:42;96731.44;;;18.78
78917;BMP280;68315;48.608;11.436;2023-03-23T12:53:14;96727.50;;;18.60
78917;BMP280;68315;48.608;11.436;2023-03-23T12:55:45;96723.84;;;18.57
78917;BMP280;68315;48.608;11.436;2023-03-23T12:58:18;96724.84;;;18.62
78917;BMP280;68315;48.608;11.436;2023-03-23T13:00:59;96723.97;;;18.59
78917;BMP280;68315;48.608;11.436;2023-03-23T13:03:47;96726.53;;;18.55
78917;BMP280;68315;48.608;11.436;2023-03-23T13:09:01;96727.56;;;18.50
78917;BMP280;68315;48.608;11.436;2023-03-23T13:11:33;96715.34;;;18.44
78917;BMP280;68315;48.608;11.436;2023-03-23T13:14:28;96735.88;;;18.39
78917;BMP280;68315;48.608;11.436;2023-03-23T13:20:01;96723.66;;;18.32
78917;BMP280;68315;48.608;11.436;2023-03-23T13:22:41;96712.00;;;18.24
78917;BMP280;68315;48.608;11.436;2023-03-23T13:25:17;96721.38;;;18.19
78917;BMP280;68315;48.608;11.436;2023-03-23T13:27:42;96721.53;;;18.21
78917;BMP280;68315;48.608;11.436;2023-03-23T13:30:20;96702.78;;;18.22
78917;BMP280;68315;48.608;11.436;2023-03-23T13:32:46;96698.94;;;18.27
78917;BMP280;68315;48.608;11.436;2023-03-23T13:35:13;96700.53;;;18.30
78917;BMP280;68315;48.608;11.436;2023-03-23T13:37:49;96703.38;;;18.41
78917;BMP280;68315;48.608;11.436;2023-03-23T13:40:26;96703.59;;;18.45
78917;BMP280;68315;48.608;11.436;2023-03-23T13:42:57;96696.38;;;18.52
78917;BMP280;68315;48.608;11.436;2023-03-23T13:48:23;96694.25;;;18.74
78917;BMP280;68315;48.608;11.436;2023-03-23T13:50:50;96683.84;;;18.74
78917;BMP280;68315;48.608;11.436;2023-03-23T13:53:24;96687.72;;;18.69
78917;BMP280;68315;48.608;11.436;2023-03-23T13:56:03;96682.88;;;18.70
78917;BMP280;68315;48.608;11.436;2023-03-23T13:58:29;96683.13;;;18.74
78917;BMP280;68315;48.608;11.436;2023-03-23T14:01:03;96689.69;;;18.78
78917;BMP280;68315;48.608;11.436;2023-03-23T14:03:42;96684.44;;;18.61
78917;BMP280;68315;48.608;11.436;2023-03-23T14:06:16;96685.25;;;18.52
78917;BMP280;68315;48.608;11.436;2023-03-23T14:08:45;96677.50;;;18.50
78917;BMP280;68315;48.608;11.436;2023-03-23T14:11:15;96680.66;;;18.56
78917;BMP280;68315;48.608;11.436;2023-03-23T14:14:02;96672.97;;;18.67
78917;BMP280;68315;48.608;11.436;2023-03-23T14:16:44;96667.03;;;18.72
78917;BMP280;68315;48.608;11.436;2023-03-23T14:19:19;96669.19;;;18.74
78917;BMP280;68315;48.608;11.436;2023-03-23T14:21:52;96670.75;;;18.65
78917;BMP280;68315;48.608;11.436;2023-03-23T14:24:32;96671.34;;;18.52
78917;BMP280;68315;48.608;11.436;2023-03-23T14:29:30;96670.81;;;18.44
78917;BMP280;68315;48.608;11.436;2023-03-23T14:31:56;96669.38;;;18.43
78917;BMP280;68315;48.608;11.436;2023-03-23T14:34:24;96665.22;;;18.32
78917;BMP280;68315;48.608;11.436;2023-03-23T14:36:51;96669.22;;;18.29
78917;BMP280;68315;48.608;11.436;2023-03-23T14:39:22;96673.06;;;18.24
78917;BMP280;68315;48.608;11.436;2023-03-23T14:41:49;96678.09;;;18.16
78917;BMP280;68315;48.608;11.436;2023-03-23T14:44:21;96673.25;;;18.17
78917;BMP280;68315;48.608;11.436;2023-03-23T14:46:47;96678.28;;;18.09
78917;BMP280;68315;48.608;11.436;2023-03-23T14:49:19;96691.63;;;18.10
78917;BMP280;68315;48.608;11.436;2023-03-23T14:51:52;96677.44;;;18.06
78917;BMP280;68315;48.608;11.436;2023-03-23T14:54:24;96666.44;;;18.08
78917;BMP280;68315;48.608;11.436;2023-03-23T14:56:49;96671.41;;;18.10
78917;BMP280;68315;48.608;11.436;2023-03-23T14:59:15;96659.16;;;18.03
78917;BMP280;68315;48.608;11.436;2023-03-23T15:01:44;96661.84;;;18.01
78917;BMP280;68315;48.608;11.436;2023-03-23T15:04:21;96664.63;;;18.01
78917;BMP280;68315;48.608;11.436;2023-03-23T15:06:59;96651.03;;;17.96
78917;BMP280;68315;48.608;11.436;2023-03-23T15:09:28;96654.66;;;17.98
78917;BMP280;68315;48.608;11.436;2023-03-23T15:11:56;96656.47;;;17.94
78917;BMP280;68315;48.608;11.436;2023-03-23T15:14:26;96658.88;;;17.88
78917;BMP280;68315;48.608;11.436;2023-03-23T15:16:54;96653.75;;;17.84
78917;BMP280;68315;48.608;11.436;2023-03-23T15:19:25;96656.25;;;17.80
78917;BMP280;68315;48.608;11.436;2023-03-23T15:21:54;96655.94;;;17.86
78917;BMP280;68315;48.608;11.436;2023-03-23T15:24:40;96663.81;;;17.89